Cumberland, Illinois
Current Conditions -  °F | °C
As of 11:53 AM on Monday 24 Nov 2014 (Local Time) from KMTO Reporting Station
Overcast Overcast  
Wind Chill: 26°   Ceiling: 2500
Heat Index: 37°   Visibility: 10mi
Dew Point: 28°   Wind: 22mph
Humidity: 70%   Direction: 260°W
Pressure: 29.59"   Gusts: 35mph
Location:  39.2896°N, 88.2485°W
Report Text: KMTO 241753Z AUTO 26019G30KT 10SM OVC025 03/M02 A2959 RMK AO2 PK WND 26030/1749 SLP023 60000 T00281022 10056 20022 51033
Loading
Personal Weather Stations






























Interactive Weather Map New forecast layout! Learn more

10-Day Weather Forecast

Advertisements
Track Severe Weather on mobile